sensor_id;sensor_type;location;lat;lon;timestamp;pressure;altitude;pressure_sealevel;temperature;humidity
57068;BME280;43391;47.448;18.904;2023-08-31T00:00:44;99017.44;;;13.90;100.00
57068;BME280;43391;47.448;18.904;2023-08-31T00:03:10;99026.81;;;13.92;100.00
57068;BME280;43391;47.448;18.904;2023-08-31T00:05:40;99020.41;;;13.97;100.00
57068;BME280;43391;47.448;18.904;2023-08-31T00:08:06;99028.09;;;13.98;100.00
57068;BME280;43391;47.448;18.904;2023-08-31T00:10:32;99014.94;;;14.00;100.00
57068;BME280;43391;47.448;18.904;2023-08-31T00:12:57;99020.06;;;14.01;100.00
57068;BME280;43391;47.448;18.904;2023-08-31T00:15:22;99016.88;;;14.09;100.00
57068;BME280;43391;47.448;18.904;2023-08-31T00:17:49;99017.59;;;14.11;100.00
57068;BME280;43391;47.448;18.904;2023-08-31T00:20:14;99024.16;;;14.17;100.00
57068;BME280;43391;47.448;18.904;2023-08-31T00:22:39;99016.69;;;14.24;100.00
57068;BME280;43391;47.448;18.904;2023-08-31T00:25:05;99008.75;;;14.25;100.00
57068;BME280;43391;47.448;18.904;2023-08-31T00:27:33;99024.91;;;14.30;100.00
57068;BME280;43391;47.448;18.904;2023-08-31T00:29:59;99019.44;;;14.33;100.00
57068;BME280;43391;47.448;18.904;2023-08-31T00:32:24;99024.44;;;14.37;100.00
57068;BME280;43391;47.448;18.904;2023-08-31T00:34:50;99029.41;;;14.40;100.00
57068;BME280;43391;47.448;18.904;2023-08-31T00:37:15;99035.25;;;14.43;100.00
57068;BME280;43391;47.448;18.904;2023-08-31T00:39:41;99027.63;;;14.40;100.00
57068;BME280;43391;47.448;18.904;2023-08-31T00:42:06;99027.75;;;14.39;100.00
57068;BME280;43391;47.448;18.904;2023-08-31T00:44:32;99031.09;;;14.41;100.00
57068;BME280;43391;47.448;18.904;2023-08-31T00:46:58;99030.72;;;14.45;100.00
57068;BME280;43391;47.448;18.904;2023-08-31T00:49:24;99028.72;;;14.49;100.00
57068;BME280;43391;47.448;18.904;2023-08-31T00:51:49;99023.84;;;14.44;100.00
57068;BME280;43391;47.448;18.904;2023-08-31T00:54:18;99029.19;;;14.43;100.00
57068;BME280;43391;47.448;18.904;2023-08-31T00:56:46;99029.66;;;14.37;100.00
57068;BME280;43391;47.448;18.904;2023-08-31T00:59:11;99030.13;;;14.30;100.00
57068;BME280;43391;47.448;18.904;2023-08-31T01:01:43;99038.88;;;14.29;100.00
57068;BME280;43391;47.448;18.904;2023-08-31T01:04:26;99039.81;;;14.28;100.00
57068;BME280;43391;47.448;18.904;2023-08-31T01:12:18;99034.72;;;14.27;100.00
57068;BME280;43391;47.448;18.904;2023-08-31T01:14:51;99043.50;;;14.26;100.00
57068;BME280;43391;47.448;18.904;2023-08-31T01:17:20;99047.75;;;14.27;100.00
57068;BME280;43391;47.448;18.904;2023-08-31T01:19:51;99045.06;;;14.28;100.00
57068;BME280;43391;47.448;18.904;2023-08-31T01:22:37;99046.72;;;14.29;100.00
57068;BME280;43391;47.448;18.904;2023-08-31T01:25:07;99046.09;;;14.26;100.00
57068;BME280;43391;47.448;18.904;2023-08-31T01:27:35;99056.66;;;14.24;100.00
57068;BME280;43391;47.448;18.904;2023-08-31T01:30:01;99063.44;;;14.27;100.00
57068;BME280;43391;47.448;18.904;2023-08-31T01:32:27;99056.34;;;14.29;100.00
57068;BME280;43391;47.448;18.904;2023-08-31T01:34:54;99053.47;;;14.32;100.00
57068;BME280;43391;47.448;18.904;2023-08-31T01:37:45;99051.13;;;14.40;100.00
57068;BME280;43391;47.448;18.904;2023-08-31T01:40:17;99053.03;;;14.38;100.00
57068;BME280;43391;47.448;18.904;2023-08-31T01:42:44;99050.19;;;14.41;100.00
57068;BME280;43391;47.448;18.904;2023-08-31T01:45:15;99048.31;;;14.43;100.00
57068;BME280;43391;47.448;18.904;2023-08-31T01:47:42;99052.69;;;14.43;100.00
57068;BME280;43391;47.448;18.904;2023-08-31T01:50:08;99053.16;;;14.48;100.00
57068;BME280;43391;47.448;18.904;2023-08-31T01:52:33;99051.63;;;14.45;100.00
57068;BME280;43391;47.448;18.904;2023-08-31T01:54:59;99049.72;;;14.47;100.00
57068;BME280;43391;47.448;18.904;2023-08-31T01:57:24;99055.88;;;14.46;100.00
57068;BME280;43391;47.448;18.904;2023-08-31T01:59:49;99049.72;;;14.47;100.00
57068;BME280;43391;47.448;18.904;2023-08-31T02:02:15;99056.59;;;14.48;100.00
57068;BME280;43391;47.448;18.904;2023-08-31T02:04:43;99057.44;;;14.49;100.00
57068;BME280;43391;47.448;18.904;2023-08-31T02:07:08;99053.28;;;14.46;100.00
57068;BME280;43391;47.448;18.904;2023-08-31T02:09:34;99051.84;;;14.42;100.00
57068;BME280;43391;47.448;18.904;2023-08-31T02:11:59;99050.44;;;14.38;100.00
57068;BME280;43391;47.448;18.904;2023-08-31T02:14:25;99048.41;;;14.30;100.00
57068;BME280;43391;47.448;18.904;2023-08-31T02:16:50;99051.00;;;14.30;100.00
57068;BME280;43391;47.448;18.904;2023-08-31T02:19:15;99051.69;;;14.21;100.00
57068;BME280;43391;47.448;18.904;2023-08-31T02:21:41;99061.28;;;14.20;100.00
57068;BME280;43391;47.448;18.904;2023-08-31T02:24:06;99065.56;;;14.21;100.00
57068;BME280;43391;47.448;18.904;2023-08-31T02:26:34;99068.78;;;14.25;100.00
57068;BME280;43391;47.448;18.904;2023-08-31T02:29:00;99067.09;;;14.24;100.00
57068;BME280;43391;47.448;18.904;2023-08-31T02:31:25;99068.81;;;14.37;100.00
57068;BME280;43391;47.448;18.904;2023-08-31T02:33:51;99054.31;;;14.32;100.00
57068;BME280;43391;47.448;18.904;2023-08-31T02:36:18;99065.25;;;14.38;100.00
57068;BME280;43391;47.448;18.904;2023-08-31T02:38:45;99060.72;;;14.40;100.00
57068;BME280;43391;47.448;18.904;2023-08-31T02:41:11;99061.09;;;14.35;100.00
57068;BME280;43391;47.448;18.904;2023-08-31T02:43:37;99068.06;;;14.34;100.00
57068;BME280;43391;47.448;18.904;2023-08-31T02:46:02;99067.97;;;14.36;100.00
57068;BME280;43391;47.448;18.904;2023-08-31T02:48:29;99070.81;;;14.33;100.00
57068;BME280;43391;47.448;18.904;2023-08-31T02:50:57;99070.38;;;14.39;100.00
57068;BME280;43391;47.448;18.904;2023-08-31T02:53:23;99068.81;;;14.37;100.00
57068;BME280;43391;47.448;18.904;2023-08-31T02:55:48;99074.72;;;14.27;100.00
57068;BME280;43391;47.448;18.904;2023-08-31T02:58:16;99067.59;;;14.29;100.00
57068;BME280;43391;47.448;18.904;2023-08-31T03:00:41;99065.94;;;14.28;100.00
57068;BME280;43391;47.448;18.904;2023-08-31T03:03:08;99056.09;;;14.32;100.00
57068;BME280;43391;47.448;18.904;2023-08-31T03:05:33;99062.50;;;14.28;100.00
57068;BME280;43391;47.448;18.904;2023-08-31T03:07:59;99060.47;;;14.20;100.00
57068;BME280;43391;47.448;18.904;2023-08-31T03:10:24;99063.19;;;14.18;100.00
57068;BME280;43391;47.448;18.904;2023-08-31T03:12:50;99058.06;;;14.17;100.00
57068;BME280;43391;47.448;18.904;2023-08-31T03:15:15;99061.75;;;14.14;100.00
57068;BME280;43391;47.448;18.904;2023-08-31T03:17:41;99061.78;;;14.26;100.00
57068;BME280;43391;47.448;18.904;2023-08-31T03:20:07;99060.00;;;14.26;100.00
57068;BME280;43391;47.448;18.904;2023-08-31T03:22:32;99069.56;;;14.14;100.00
57068;BME280;43391;47.448;18.904;2023-08-31T03:24:58;99063.66;;;14.12;100.00
57068;BME280;43391;47.448;18.904;2023-08-31T03:27:25;99070.63;;;14.12;100.00
57068;BME280;43391;47.448;18.904;2023-08-31T03:29:50;99069.44;;;14.04;100.00
57068;BME280;43391;47.448;18.904;2023-08-31T03:32:15;99077.81;;;13.97;100.00
57068;BME280;43391;47.448;18.904;2023-08-31T03:34:41;99084.91;;;13.94;100.00
57068;BME280;43391;47.448;18.904;2023-08-31T03:37:06;99084.09;;;13.94;100.00
57068;BME280;43391;47.448;18.904;2023-08-31T03:39:31;99088.84;;;14.00;100.00
57068;BME280;43391;47.448;18.904;2023-08-31T03:41:57;99083.63;;;14.00;100.00
57068;BME280;43391;47.448;18.904;2023-08-31T03:44:22;99082.59;;;14.03;100.00
57068;BME280;43391;47.448;18.904;2023-08-31T03:46:48;99082.47;;;14.04;100.00
57068;BME280;43391;47.448;18.904;2023-08-31T03:49:14;99082.91;;;13.98;100.00
57068;BME280;43391;47.448;18.904;2023-08-31T03:51:39;99086.81;;;13.92;100.00
57068;BME280;43391;47.448;18.904;2023-08-31T03:54:04;99085.84;;;13.93;100.00
57068;BME280;43391;47.448;18.904;2023-08-31T03:56:30;99086.81;;;13.92;100.00
57068;BME280;43391;47.448;18.904;2023-08-31T03:58:55;99084.69;;;13.98;100.00
57068;BME280;43391;47.448;18.904;2023-08-31T04:01:21;99081.47;;;13.94;100.00
57068;BME280;43391;47.448;18.904;2023-08-31T04:03:46;99080.53;;;13.95;100.00
57068;BME280;43391;47.448;18.904;2023-08-31T04:06:11;99089.91;;;13.98;100.00
57068;BME280;43391;47.448;18.904;2023-08-31T04:08:37;99089.66;;;14.01;100.00
57068;BME280;43391;47.448;18.904;2023-08-31T04:11:02;99091.97;;;14.05;100.00
57068;BME280;43391;47.448;18.904;2023-08-31T04:13:28;99097.28;;;14.04;100.00
57068;BME280;43391;47.448;18.904;2023-08-31T04:15:54;99100.25;;;13.99;100.00
57068;BME280;43391;47.448;18.904;2023-08-31T04:18:19;99099.50;;;13.97;100.00
57068;BME280;43391;47.448;18.904;2023-08-31T04:20:52;99101.06;;;14.00;100.00
57068;BME280;43391;47.448;18.904;2023-08-31T04:23:18;99102.84;;;13.99;100.00
57068;BME280;43391;47.448;18.904;2023-08-31T04:25:45;99109.72;;;14.00;100.00
57068;BME280;43391;47.448;18.904;2023-08-31T04:28:10;99108.78;;;14.01;100.00
57068;BME280;43391;47.448;18.904;2023-08-31T04:30:36;99107.84;;;14.02;100.00
57068;BME280;43391;47.448;18.904;2023-08-31T04:33:01;99116.72;;;14.00;100.00
57068;BME280;43391;47.448;18.904;2023-08-31T04:35:26;99122.69;;;14.02;100.00
57068;BME280;43391;47.448;18.904;2023-08-31T04:37:52;99127.91;;;14.02;100.00
57068;BME280;43391;47.448;18.904;2023-08-31T04:40:17;99135.47;;;14.05;100.00
57068;BME280;43391;47.448;18.904;2023-08-31T04:42:43;99125.66;;;14.08;100.00
57068;BME280;43391;47.448;18.904;2023-08-31T04:45:08;99129.56;;;14.03;100.00
57068;BME280;43391;47.448;18.904;2023-08-31T04:47:35;99144.47;;;14.01;100.00
57068;BME280;43391;47.448;18.904;2023-08-31T04:50:00;99135.47;;;14.05;100.00
57068;BME280;43391;47.448;18.904;2023-08-31T04:52:26;99138.19;;;14.03;100.00
57068;BME280;43391;47.448;18.904;2023-08-31T04:54:51;99142.25;;;14.07;100.00
57068;BME280;43391;47.448;18.904;2023-08-31T04:57:16;99142.25;;;14.07;100.00
57068;BME280;43391;47.448;18.904;2023-08-31T04:59:42;99143.41;;;14.03;100.00
57068;BME280;43391;47.448;18.904;2023-08-31T05:02:07;99149.28;;;14.07;100.00
57068;BME280;43391;47.448;18.904;2023-08-31T05:04:32;99143.00;;;14.10;100.00
57068;BME280;43391;47.448;18.904;2023-08-31T05:06:58;99155.59;;;14.16;100.00
57068;BME280;43391;47.448;18.904;2023-08-31T05:09:26;99161.22;;;14.23;100.00
57068;BME280;43391;47.448;18.904;2023-08-31T05:11:52;99167.25;;;14.23;100.00
57068;BME280;43391;47.448;18.904;2023-08-31T05:14:17;99168.09;;;14.24;100.00
57068;BME280;43391;47.448;18.904;2023-08-31T05:16:43;99171.19;;;14.29;100.00
57068;BME280;43391;47.448;18.904;2023-08-31T05:19:08;99177.88;;;14.33;100.00
57068;BME280;43391;47.448;18.904;2023-08-31T05:21:34;99172.09;;;14.41;100.00
57068;BME280;43391;47.448;18.904;2023-08-31T05:23:59;99177.91;;;14.44;100.00
57068;BME280;43391;47.448;18.904;2023-08-31T05:26:25;99185.38;;;14.49;100.00
57068;BME280;43391;47.448;18.904;2023-08-31T05:28:50;99181.63;;;14.53;100.00
57068;BME280;43391;47.448;18.904;2023-08-31T05:31:15;99179.50;;;14.58;100.00
57068;BME280;43391;47.448;18.904;2023-08-31T05:33:41;99187.31;;;14.58;100.00
57068;BME280;43391;47.448;18.904;2023-08-31T05:36:06;99198.03;;;14.67;100.00
57068;BME280;43391;47.448;18.904;2023-08-31T05:38:31;99194.03;;;14.74;100.00
57068;BME280;43391;47.448;18.904;2023-08-31T05:41:07;99197.16;;;14.79;100.00
57068;BME280;43391;47.448;18.904;2023-08-31T05:43:34;99202.53;;;14.89;100.00
57068;BME280;43391;47.448;18.904;2023-08-31T05:45:59;99199.34;;;14.97;100.00
57068;BME280;43391;47.448;18.904;2023-08-31T05:48:25;99206.38;;;15.08;100.00
57068;BME280;43391;47.448;18.904;2023-08-31T05:50:50;99203.88;;;15.18;100.00
57068;BME280;43391;47.448;18.904;2023-08-31T05:53:15;99203.19;;;15.27;100.00
57068;BME280;43391;47.448;18.904;2023-08-31T05:55:42;99210.06;;;15.28;100.00
57068;BME280;43391;47.448;18.904;2023-08-31T05:58:07;99213.28;;;15.32;100.00
57068;BME280;43391;47.448;18.904;2023-08-31T06:00:32;99218.41;;;15.45;100.00
57068;BME280;43391;47.448;18.904;2023-08-31T06:02:58;99228.88;;;15.56;100.00
57068;BME280;43391;47.448;18.904;2023-08-31T06:05:23;99240.16;;;15.68;100.00
57068;BME280;43391;47.448;18.904;2023-08-31T06:07:48;99239.34;;;15.79;100.00
57068;BME280;43391;47.448;18.904;2023-08-31T06:10:14;99245.53;;;15.89;100.00
57068;BME280;43391;47.448;18.904;2023-08-31T06:12:40;99244.09;;;15.97;100.00
57068;BME280;43391;47.448;18.904;2023-08-31T06:15:06;99247.88;;;16.04;100.00
57068;BME280;43391;47.448;18.904;2023-08-31T06:17:31;99242.66;;;16.15;100.00
57068;BME280;43391;47.448;18.904;2023-08-31T06:19:57;99247.50;;;16.20;100.00
57068;BME280;43391;47.448;18.904;2023-08-31T06:22:22;99250.13;;;16.20;100.00
57068;BME280;43391;47.448;18.904;2023-08-31T06:24:49;99260.72;;;16.18;100.00
57068;BME280;43391;47.448;18.904;2023-08-31T06:27:15;99260.25;;;16.13;100.00
57068;BME280;43391;47.448;18.904;2023-08-31T06:29:41;99269.06;;;16.12;100.00
57068;BME280;43391;47.448;18.904;2023-08-31T06:32:07;99268.00;;;16.15;100.00
57068;BME280;43391;47.448;18.904;2023-08-31T06:34:32;99268.84;;;16.15;100.00
57068;BME280;43391;47.448;18.904;2023-08-31T06:36:58;99268.81;;;16.27;100.00
57068;BME280;43391;47.448;18.904;2023-08-31T06:39:24;99262.38;;;16.31;100.00
57068;BME280;43391;47.448;18.904;2023-08-31T06:41:49;99266.53;;;16.33;100.00
57068;BME280;43391;47.448;18.904;2023-08-31T06:44:15;99261.75;;;16.39;100.00
57068;BME280;43391;47.448;18.904;2023-08-31T06:46:42;99272.81;;;16.42;100.00
57068;BME280;43391;47.448;18.904;2023-08-31T06:49:07;99275.91;;;16.47;100.00
57068;BME280;43391;47.448;18.904;2023-08-31T06:51:33;99273.75;;;16.53;100.00
57068;BME280;43391;47.448;18.904;2023-08-31T06:53:58;99273.63;;;16.54;100.00
57068;BME280;43391;47.448;18.904;2023-08-31T06:56:32;99280.03;;;16.62;100.00
57068;BME280;43391;47.448;18.904;2023-08-31T06:58:58;99284.53;;;16.71;100.00
57068;BME280;43391;47.448;18.904;2023-08-31T07:01:23;99285.28;;;16.83;100.00
57068;BME280;43391;47.448;18.904;2023-08-31T07:03:48;99290.06;;;16.89;100.00
57068;BME280;43391;47.448;18.904;2023-08-31T07:06:14;99292.63;;;17.00;100.00
57068;BME280;43391;47.448;18.904;2023-08-31T07:08:39;99298.91;;;17.09;100.00
57068;BME280;43391;47.448;18.904;2023-08-31T07:11:06;99304.50;;;17.16;100.00
57068;BME280;43391;47.448;18.904;2023-08-31T07:13:31;99306.19;;;17.27;100.00
57068;BME280;43391;47.448;18.904;2023-08-31T07:15:57;99313.59;;;17.33;100.00
57068;BME280;43391;47.448;18.904;2023-08-31T07:18:22;99317.91;;;17.44;100.00
57068;BME280;43391;47.448;18.904;2023-08-31T07:20:48;99316.75;;;17.58;100.00
57068;BME280;43391;47.448;18.904;2023-08-31T07:23:13;99310.31;;;17.72;100.00
57068;BME280;43391;47.448;18.904;2023-08-31T07:25:39;99308.44;;;17.84;100.00
57068;BME280;43391;47.448;18.904;2023-08-31T07:28:05;99315.09;;;17.88;100.00
57068;BME280;43391;47.448;18.904;2023-08-31T07:30:30;99315.84;;;18.00;100.00
57068;BME280;43391;47.448;18.904;2023-08-31T07:32:56;99320.34;;;18.10;100.00
57068;BME280;43391;47.448;18.904;2023-08-31T07:35:21;99318.53;;;18.10;100.00
57068;BME280;43391;47.448;18.904;2023-08-31T07:37:47;99322.97;;;18.10;100.00
57068;BME280;43391;47.448;18.904;2023-08-31T07:40:12;99324.63;;;18.11;100.00
57068;BME280;43391;47.448;18.904;2023-08-31T07:42:37;99324.78;;;18.19;100.00
57068;BME280;43391;47.448;18.904;2023-08-31T07:45:03;99330.31;;;18.26;100.00
57068;BME280;43391;47.448;18.904;2023-08-31T07:47:31;99327.59;;;18.37;100.00
57068;BME280;43391;47.448;18.904;2023-08-31T07:49:57;99333.25;;;18.42;98.66
57068;BME280;43391;47.448;18.904;2023-08-31T07:52:23;99334.41;;;18.50;99.11
57068;BME280;43391;47.448;18.904;2023-08-31T07:54:48;99340.78;;;18.67;100.00
57068;BME280;43391;47.448;18.904;2023-08-31T07:57:14;99336.34;;;18.77;99.33
57068;BME280;43391;47.448;18.904;2023-08-31T07:59:39;99329.44;;;18.66;96.70
57068;BME280;43391;47.448;18.904;2023-08-31T08:02:06;99346.44;;;18.62;97.77
57068;BME280;43391;47.448;18.904;2023-08-31T08:04:31;99343.28;;;18.88;97.86
57068;BME280;43391;47.448;18.904;2023-08-31T08:06:57;99350.63;;;18.94;94.08
57068;BME280;43391;47.448;18.904;2023-08-31T08:09:22;99353.28;;;19.04;93.66
57068;BME280;43391;47.448;18.904;2023-08-31T08:11:48;99354.66;;;18.98;91.55
57068;BME280;43391;47.448;18.904;2023-08-31T08:14:13;99347.31;;;19.02;94.16
57068;BME280;43391;47.448;18.904;2023-08-31T08:16:39;99354.53;;;19.00;93.41
57068;BME280;43391;47.448;18.904;2023-08-31T08:19:06;99347.88;;;18.96;93.35
57068;BME280;43391;47.448;18.904;2023-08-31T08:21:31;99354.78;;;18.97;92.51
57068;BME280;43391;47.448;18.904;2023-08-31T08:23:56;99354.97;;;19.05;94.49
57068;BME280;43391;47.448;18.904;2023-08-31T08:26:22;99365.19;;;19.08;92.77
57068;BME280;43391;47.448;18.904;2023-08-31T08:28:47;99358.00;;;19.10;94.10
57068;BME280;43391;47.448;18.904;2023-08-31T08:31:12;99352.16;;;19.27;93.23
57068;BME280;43391;47.448;18.904;2023-08-31T08:33:38;99359.91;;;19.48;92.92
57068;BME280;43391;47.448;18.904;2023-08-31T08:36:03;99358.91;;;19.69;90.80
57068;BME280;43391;47.448;18.904;2023-08-31T08:38:29;99354.38;;;19.99;91.51
57068;BME280;43391;47.448;18.904;2023-08-31T08:40:54;99364.09;;;20.36;89.08
57068;BME280;43391;47.448;18.904;2023-08-31T08:43:26;99362.00;;;20.58;85.37
57068;BME280;43391;47.448;18.904;2023-08-31T08:45:52;99361.63;;;20.53;82.31
57068;BME280;43391;47.448;18.904;2023-08-31T08:48:19;99365.81;;;20.45;82.44
57068;BME280;43391;47.448;18.904;2023-08-31T08:50:45;99359.28;;;20.50;84.76
57068;BME280;43391;47.448;18.904;2023-08-31T08:53:11;99369.28;;;20.46;79.10
57068;BME280;43391;47.448;18.904;2023-08-31T08:55:38;99370.88;;;20.39;79.15
57068;BME280;43391;47.448;18.904;2023-08-31T08:58:05;99378.50;;;20.60;80.36
57068;BME280;43391;47.448;18.904;2023-08-31T09:00:32;99384.47;;;20.80;77.74
57068;BME280;43391;47.448;18.904;2023-08-31T09:02:59;99385.19;;;21.19;76.87
57068;BME280;43391;47.448;18.904;2023-08-31T09:05:25;99391.72;;;21.51;78.11
57068;BME280;43391;47.448;18.904;2023-08-31T09:08:09;99392.59;;;21.78;75.35
57068;BME280;43391;47.448;18.904;2023-08-31T09:10:39;99390.03;;;21.68;73.72
57068;BME280;43391;47.448;18.904;2023-08-31T09:13:08;99392.72;;;21.32;72.76
57068;BME280;43391;47.448;18.904;2023-08-31T09:18:28;99399.00;;;21.13;75.21
57068;BME280;43391;47.448;18.904;2023-08-31T09:20:55;99399.53;;;21.34;77.20
57068;BME280;43391;47.448;18.904;2023-08-31T09:23:24;99399.94;;;21.48;74.92
57068;BME280;43391;47.448;18.904;2023-08-31T09:25:52;99399.38;;;21.62;74.14
57068;BME280;43391;47.448;18.904;2023-08-31T09:28:21;99404.88;;;21.69;73.73
57068;BME280;43391;47.448;18.904;2023-08-31T09:30:49;99396.59;;;21.64;73.02
57068;BME280;43391;47.448;18.904;2023-08-31T09:33:16;99398.63;;;21.70;75.43
57068;BME280;43391;47.448;18.904;2023-08-31T09:35:57;99402.75;;;21.91;74.94
57068;BME280;43391;47.448;18.904;2023-08-31T09:38:23;99401.03;;;22.08;72.44
57068;BME280;43391;47.448;18.904;2023-08-31T09:40:49;99403.41;;;22.28;72.07
57068;BME280;43391;47.448;18.904;2023-08-31T09:43:21;99407.63;;;22.47;71.04
57068;BME280;43391;47.448;18.904;2023-08-31T09:45:48;99411.88;;;22.40;70.35
57068;BME280;43391;47.448;18.904;2023-08-31T09:48:15;99419.75;;;22.23;69.16
57068;BME280;43391;47.448;18.904;2023-08-31T09:50:43;99409.41;;;22.03;67.49
57068;BME280;43391;47.448;18.904;2023-08-31T09:53:10;99411.44;;;21.83;69.93
57068;BME280;43391;47.448;18.904;2023-08-31T09:55:39;99419.63;;;21.72;70.62
57068;BME280;43391;47.448;18.904;2023-08-31T09:58:04;99419.38;;;21.83;72.76
57068;BME280;43391;47.448;18.904;2023-08-31T10:00:31;99418.13;;;21.96;71.02
57068;BME280;43391;47.448;18.904;2023-08-31T10:03:01;99422.72;;;21.94;71.61
57068;BME280;43391;47.448;18.904;2023-08-31T10:05:27;99422.03;;;21.65;69.00
57068;BME280;43391;47.448;18.904;2023-08-31T10:07:53;99433.28;;;21.49;71.42
57068;BME280;43391;47.448;18.904;2023-08-31T10:10:19;99428.94;;;21.21;71.52
57068;BME280;43391;47.448;18.904;2023-08-31T10:12:47;99440.25;;;21.14;73.74
57068;BME280;43391;47.448;18.904;2023-08-31T10:15:14;99435.25;;;20.92;75.93
57068;BME280;43391;47.448;18.904;2023-08-31T10:17:40;99440.22;;;20.95;77.30
57068;BME280;43391;47.448;18.904;2023-08-31T10:20:10;99432.25;;;20.77;77.26
57068;BME280;43391;47.448;18.904;2023-08-31T10:22:36;99436.84;;;20.75;76.48
57068;BME280;43391;47.448;18.904;2023-08-31T10:25:07;99433.81;;;20.70;76.09
57068;BME280;43391;47.448;18.904;2023-08-31T10:27:43;99433.97;;;20.68;75.65
57068;BME280;43391;47.448;18.904;2023-08-31T10:33:01;99439.59;;;20.55;77.66
57068;BME280;43391;47.448;18.904;2023-08-31T10:35:53;99438.09;;;20.53;75.97
57068;BME280;43391;47.448;18.904;2023-08-31T10:44:02;99451.00;;;20.46;76.94
57068;BME280;43391;47.448;18.904;2023-08-31T10:46:43;99450.06;;;20.37;75.93
57068;BME280;43391;47.448;18.904;2023-08-31T10:51:45;99449.94;;;20.39;75.88
57068;BME280;43391;47.448;18.904;2023-08-31T10:54:22;99454.81;;;20.34;73.94
57068;BME280;43391;47.448;18.904;2023-08-31T10:57:02;99454.81;;;20.34;75.77
57068;BME280;43391;47.448;18.904;2023-08-31T11:07:29;99470.19;;;20.66;74.80
57068;BME280;43391;47.448;18.904;2023-08-31T11:10:10;99469.16;;;20.87;76.12
57068;BME280;43391;47.448;18.904;2023-08-31T11:12:36;99462.84;;;20.98;76.05
57068;BME280;43391;47.448;18.904;2023-08-31T11:15:02;99473.47;;;21.06;73.21
57068;BME280;43391;47.448;18.904;2023-08-31T11:17:29;99470.53;;;21.09;73.58
57068;BME280;43391;47.448;18.904;2023-08-31T11:19:56;99479.09;;;21.21;74.92
57068;BME280;43391;47.448;18.904;2023-08-31T11:22:21;99476.28;;;21.41;73.47
57068;BME280;43391;47.448;18.904;2023-08-31T11:24:47;99474.31;;;21.80;72.61
57068;BME280;43391;47.448;18.904;2023-08-31T11:27:12;99476.91;;;22.24;68.80
57068;BME280;43391;47.448;18.904;2023-08-31T11:29:43;99479.78;;;22.66;71.07
57068;BME280;43391;47.448;18.904;2023-08-31T11:32:09;99472.94;;;22.90;68.45
57068;BME280;43391;47.448;18.904;2023-08-31T11:34:34;99482.81;;;22.79;65.83
57068;BME280;43391;47.448;18.904;2023-08-31T11:37:02;99472.84;;;22.65;69.84
57068;BME280;43391;47.448;18.904;2023-08-31T11:39:27;99477.28;;;22.56;71.30
57068;BME280;43391;47.448;18.904;2023-08-31T11:41:53;99481.47;;;22.40;68.42
57068;BME280;43391;47.448;18.904;2023-08-31T11:44:18;99471.97;;;22.29;68.88
57068;BME280;43391;47.448;18.904;2023-08-31T11:46:46;99481.50;;;22.49;67.56
57068;BME280;43391;47.448;18.904;2023-08-31T11:49:16;99478.88;;;22.92;69.41
57068;BME280;43391;47.448;18.904;2023-08-31T11:51:42;99475.31;;;23.18;65.70
57068;BME280;43391;47.448;18.904;2023-08-31T11:54:10;99476.28;;;23.25;65.31
57068;BME280;43391;47.448;18.904;2023-08-31T11:56:42;99471.84;;;23.26;65.51
57068;BME280;43391;47.448;18.904;2023-08-31T11:59:11;99468.84;;;23.20;67.04
57068;BME280;43391;47.448;18.904;2023-08-31T12:01:41;99465.03;;;23.15;66.24
57068;BME280;43391;47.448;18.904;2023-08-31T12:04:14;99468.50;;;22.99;64.32
57068;BME280;43391;47.448;18.904;2023-08-31T12:06:40;99480.41;;;23.03;66.11
57068;BME280;43391;47.448;18.904;2023-08-31T12:09:09;99475.28;;;23.09;63.90
57068;BME280;43391;47.448;18.904;2023-08-31T12:11:35;99474.97;;;23.29;63.26
57068;BME280;43391;47.448;18.904;2023-08-31T12:14:17;99468.09;;;23.37;63.33
57068;BME280;43391;47.448;18.904;2023-08-31T12:16:42;99474.53;;;23.42;62.03
57068;BME280;43391;47.448;18.904;2023-08-31T12:19:09;99470.41;;;23.48;60.87
57068;BME280;43391;47.448;18.904;2023-08-31T12:21:34;99472.91;;;23.49;61.05
57068;BME280;43391;47.448;18.904;2023-08-31T12:24:00;99468.91;;;23.54;60.60
57068;BME280;43391;47.448;18.904;2023-08-31T12:26:26;99473.38;;;23.61;62.11
57068;BME280;43391;47.448;18.904;2023-08-31T12:28:51;99472.72;;;23.59;60.91
57068;BME280;43391;47.448;18.904;2023-08-31T12:31:17;99469.09;;;23.52;60.84
57068;BME280;43391;47.448;18.904;2023-08-31T12:33:42;99474.38;;;23.44;62.12
57068;BME280;43391;47.448;18.904;2023-08-31T12:36:07;99472.88;;;23.58;63.43
57068;BME280;43391;47.448;18.904;2023-08-31T12:38:33;99467.25;;;23.53;63.53
57068;BME280;43391;47.448;18.904;2023-08-31T12:40:58;99467.91;;;23.38;63.35
57068;BME280;43391;47.448;18.904;2023-08-31T12:43:24;99470.03;;;23.26;59.41
57068;BME280;43391;47.448;18.904;2023-08-31T12:45:49;99467.41;;;23.34;58.60
57068;BME280;43391;47.448;18.904;2023-08-31T12:48:15;99470.56;;;23.46;59.73
57068;BME280;43391;47.448;18.904;2023-08-31T12:50:40;99473.69;;;23.67;59.61
57068;BME280;43391;47.448;18.904;2023-08-31T12:53:05;99478.50;;;23.63;57.74
57068;BME280;43391;47.448;18.904;2023-08-31T12:55:31;99468.41;;;23.67;58.38
57068;BME280;43391;47.448;18.904;2023-08-31T12:57:56;99473.06;;;23.65;57.67
57068;BME280;43391;47.448;18.904;2023-08-31T13:00:22;99469.56;;;23.72;59.20
57068;BME280;43391;47.448;18.904;2023-08-31T13:02:47;99470.22;;;23.83;58.73
57068;BME280;43391;47.448;18.904;2023-08-31T13:05:15;99470.88;;;23.85;59.14
57068;BME280;43391;47.448;18.904;2023-08-31T13:07:41;99469.41;;;23.91;58.29